Currently 78°F in Pinon Hills, California, USA
78°F
78°F / 70°F
calm
0.00"
Friday, July 30, 2021 7:31 AM PDT

Pinon Hills, California Weather Summary
Last 36 Hours

Temperature Winds Hourly Humidity Dewpoint
Time Report Norm Report Norm Max Gusts Precip. Rpt. Norm Rpt. Norm Pressure
1Fri 07:31 AM  77.6°F  77°F  calm  1 mph  none  0.00"  29%  32%  42°F  44°F  30.19"
2Fri 07:30 AM  77.7°F  77°F  calm  1 mph  none  ----  29%  32%  42°F  44°F  30.19"
Fri 07:00 AM  74.9°F  74°F  calm  1 mph  6 mph  0.00"  26%  35%  37°F  44°F  30.19"
Fri 06:00 AM  70.4°F  71°F  3 mph SW  2 mph  6 mph  0.00"  30%  36%  37°F  42°F  30.17"
3Fri 05:36 AM  69.8°F  71°F  2 mph SW  2 mph  4 mph  ----  32%  36%  37°F  42°F  30.16"
Fri 05:00 AM  72.0°F  71°F  4 mph W  2 mph  6 mph  0.00"  29%  36%  37°F  42°F  30.16"
Fri 04:00 AM  71.8°F  72°F  1 mph SW  2 mph  4 mph  0.00"  27%  36%  35°F  42°F  30.16"
Fri 03:00 AM  75.4°F  72°F  1 mph S  2 mph  6 mph  0.00"  24%  36%  35°F  43°F  30.16"
Fri 02:00 AM  75.2°F  73°F  2 mph SW  2 mph  7 mph  0.00"  21%  35%  31°F  43°F  30.15"
Fri 01:00 AM  74.8°F  74°F  4 mph SW  2 mph  7 mph  0.00"  20%  35%  30°F  43°F  30.15"
Fri 12:00 AM  75.4°F  74°F  2 mph W  2 mph  4 mph  0.00"  20%  35%  30°F  44°F  30.15"
Thu 11:00 PM  76.2°F  76°F  1 mph S  2 mph  5 mph  0.00"  20%  34%  31°F  44°F  30.15"
Thu 10:00 PM  75.8°F  77°F  2 mph S  2 mph  8 mph  0.00"  27%  32%  38°F  44°F  30.15"
Thu 09:00 PM  81.6°F  80°F  5 mph S  3 mph  11 mph  0.00"  17%  29%  31°F  44°F  30.13"
Thu 08:00 PM  83.9°F  83°F  5 mph SW  4 mph  11 mph  0.00"  16%  27%  31°F  44°F  30.10"
Thu 07:00 PM  87.0°F  86°F  6 mph SW  5 mph  13 mph  0.00"  14%  23%  31°F  43°F  30.09"
Thu 06:00 PM  90.8°F  89°F  1 mph N  3 mph  8 mph  0.00"  14%  21%  34°F  42°F  30.06"
Thu 05:00 PM  90.8°F  91°F  calm  3 mph  10 mph  0.00"  17%  19%  38°F  42°F  30.08"
Thu 04:00 PM  89.6°F  91°F  4 mph SE  3 mph  10 mph  0.00"  19%  18%  40°F  41°F  30.09"
Thu 03:00 PM  91.8°F  92°F  1 mph E  3 mph  7 mph  0.00"  17%  17%  39°F  40°F  30.11"
Thu 02:00 PM  92.2°F  91°F  4 mph S  2 mph  10 mph  0.00"  18%  18%  41°F  40°F  30.13"
Thu 01:00 PM  90.6°F  90°F  calm  2 mph  7 mph  0.00"  19%  19%  41°F  40°F  30.14"
Thu 12:00 PM  89.8°F  88°F  calm  2 mph  none  0.00"  20%  21%  42°F  42°F  30.16"
Thu 11:00 AM  87.5°F  87°F  calm  2 mph  8 mph  0.00"  22%  21%  43°F  41°F  30.18"
Thu 10:00 AM  84.2°F  85°F  1 mph N  1 mph  6 mph  0.00"  25%  23%  43°F  42°F  30.19"
Thu 09:00 AM  80.6°F  82°F  1 mph E  1 mph  2 mph  0.00"  23%  26%  38°F  43°F  30.20"
Thu 08:00 AM  77.8°F  79°F  calm  1 mph  6 mph  0.00"  24%  30%  37°F  43°F  30.21"
Thu 07:00 AM  72.7°F  74°F  4 mph SW  1 mph  6 mph  0.00"  30%  35%  38°F  44°F  30.21"
Thu 06:00 AM  72.0°F  71°F  4 mph W  2 mph  8 mph  0.00"  34%  37%  41°F  42°F  30.21"
Thu 05:00 AM  71.9°F  71°F  5 mph SW  2 mph  7 mph  0.00"  35%  37%  42°F  42°F  30.19"
Thu 04:00 AM  72.3°F  72°F  3 mph SW  2 mph  8 mph  0.00"  34%  37%  41°F  43°F  30.19"
Thu 03:00 AM  72.4°F  72°F  3 mph SW  2 mph  6 mph  0.00"  33%  36%  41°F  43°F  30.20"
Thu 02:00 AM  73.7°F  73°F  3 mph S  2 mph  6 mph  0.00"  32%  35%  41°F  43°F  30.20"
Thu 01:00 AM  73.9°F  74°F  3 mph SW  2 mph  6 mph  0.00"  34%  35%  42°F  43°F  30.22"
Thu 12:00 AM  73.0°F  74°F  2 mph SW  2 mph  6 mph  0.00"  38%  35%  45°F  44°F  30.23"
Wed 11:00 PM  73.3°F  76°F  1 mph SW  2 mph  3 mph  0.00"  35%  34%  43°F  44°F  30.22"
Wed 10:00 PM  80.1°F  78°F  calm  2 mph  11 mph  0.00"  23%  32%  37°F  44°F  30.22"
Wed 09:00 PM  80.4°F  80°F  6 mph SW  3 mph  10 mph  0.00"  26%  29%  41°F  43°F  30.20"
Wed 08:00 PM  81.2°F  83°F  4 mph W  4 mph  12 mph  0.00"  31%  26%  46°F  43°F  30.18"

  1. Current weather data. No green row appears if the current weather data is also the high or low for the current day.
  2. High temperature for the current day.
  3. Low temperature for the current day.

The Pinon Hills, California weather pages are a service of WeatherCurrents.
Copyright ©2021  WeatherCurrents. All rights reserved. - Submit questions and comments - Privacy Policy

This page automatically refreshes every 10 minutes.